Terminal Aerodrome Forecast
Issued by NWS

Home | Current Version | Previous Version | Text Only | Print | Product List | Glossary Off
Versions: 1 2 3 4 5 6 7 8 9 10 11 12 13 14 15 16 17 18 19 20 21 22 23 24

000
FTUS43 KGRB 191500 AAA
TAFAUW
TAF AMD
KAUW 191507Z 1915/2012 18012G17KT P6SM SCT010 BKN250
      TEMPO 1915/1916 BKN010
     FM191600 18014G24KT P6SM BKN200
     FM192300 19011KT P6SM BKN100 BKN250
     FM200500 20008KT 5SM BR SCT012 BKN025
      TEMPO 2008/2012 2SM -TSRA OVC012CB=

USA.gov is the U.S. government's official web portal to all federal, state and local government web resources and services.